Terminal Aerodrome Forecast
Issued by NWS Cleveland, OH

Home | Current Version | Previous Version | Text Only | Print | Product List | Glossary On
Versions: 1 2 3 4 5 6 7 8 9 10 11 12 13 14 15 16
000
FTUS41 KCLE 012100 AAA
TAFTOL
TAF AMD
KTOL 012110Z 0121/0218 06015G25KT 1/2SM SN BLSN OVC005
      TEMPO 0121/0201 1/4SM +SN OVC003
     FM020600 01020G32KT 3/4SM -SN BLSN OVC004
     FM021300 34020G32KT 1 1/2SM BLSN OVC010=

USA.gov is the U.S. government's official web portal to all federal, state and local government web resources and services.